Time;durP1;ratioP1;P1;durP2;ratioP2;P2;SDS_P1;SDS_P2;PMS_P1;PMS_P2;Temp;Humidity;BMP_temperature;BMP_pressure;BME280_temperature;BME280_humidity;BME280_pressure;Samples;Min_cycle;Max_cycle;Signal;HPM_P1;HPM_P2
2021/05/28 00:01:39;;;;;;;11.32;7.47;;;;;;;11.20;96.99;100877.16;20640205;28;20044;-71
2021/05/28 00:11:41;;;;;;;13.30;7.70;;;;;;;11.23;96.23;100882.22;20951501;28;20156;-72
2021/05/28 00:21:43;;;;;;;15.48;7.82;;;;;;;11.17;94.88;100875.53;20929597;28;20073;-72
2021/05/28 00:31:44;;;;;;;14.00;8.52;;;;;;;11.16;94.23;100876.47;20914342;28;20102;-72
2021/05/28 00:41:46;;;;;;;12.75;8.27;;;;;;;11.05;93.79;100876.97;20907622;28;20122;-71
2021/05/28 00:51:48;;;;;;;13.40;7.85;;;;;;;10.98;93.20;100880.81;20927966;28;20053;-72
2021/05/28 01:01:51;;;;;;;14.02;7.72;;;;;;;10.99;92.91;100884.28;20907717;28;20044;-72
2021/05/28 01:11:52;;;;;;;15.10;7.25;;;;;;;11.00;90.51;100880.75;20905040;28;20051;-71
2021/05/28 01:22:02;;;;;;;14.27;7.97;;;;;;;10.99;89.89;100873.81;20940475;28;20049;-72
2021/05/28 01:32:03;;;;;;;13.30;7.57;;;;;;;10.92;90.55;100888.94;20906433;28;20522;-72
2021/05/28 01:42:06;;;;;;;14.73;7.25;;;;;;;10.95;89.88;100904.53;20903522;28;20045;-71
2021/05/28 01:52:08;;;;;;;13.02;6.55;;;;;;;10.90;90.85;100901.28;20926357;28;20067;-71
2021/05/28 02:02:11;;;;;;;14.65;7.35;;;;;;;10.79;90.45;100898.31;20904615;28;20098;-71
2021/05/28 02:12:13;;;;;;;12.65;7.07;;;;;;;10.76;91.94;100903.72;20902583;28;20053;-71
2021/05/28 02:22:15;;;;;;;14.70;7.72;;;;;;;10.70;91.67;100911.84;20925652;28;20045;-72
2021/05/28 02:32:17;;;;;;;17.70;8.20;;;;;;;10.67;91.88;100910.22;20908782;28;20499;-70
2021/05/28 02:42:19;;;;;;;14.05;7.55;;;;;;;10.41;94.98;100907.13;20917444;28;20049;-71
2021/05/28 02:52:21;;;;;;;14.93;8.18;;;;;;;10.35;96.98;100905.63;20942278;28;20048;-72
2021/05/28 03:02:23;;;;;;;17.02;9.38;;;;;;;10.37;97.52;100910.75;20915430;28;20064;-74
2021/05/28 03:12:25;;;;;;;18.40;9.45;;;;;;;10.44;96.56;100917.44;20915654;28;20041;-72
2021/05/28 03:32:35;;;;;;;18.05;10.70;;;;;;;10.34;96.40;100906.53;20913204;28;20111;-72
2021/05/28 03:42:38;;;;;;;17.85;10.68;;;;;;;10.35;98.29;100918.72;20911532;28;20049;-71
2021/05/28 03:52:41;;;;;;;21.85;11.10;;;;;;;10.33;96.11;100907.44;20937448;28;20304;-71
2021/05/28 04:02:43;;;;;;;21.50;11.48;;;;;;;10.24;96.88;100911.34;20930025;28;20084;-70
2021/05/28 04:12:45;;;;;;;20.08;11.73;;;;;;;10.22;96.35;100902.69;20987190;28;20064;-70
2021/05/28 04:22:46;;;;;;;19.55;10.02;;;;;;;10.25;96.77;100902.56;20946865;28;20099;-70
2021/05/28 04:32:52;;;;;;;19.90;11.60;;;;;;;10.45;94.52;100912.13;20906325;28;20498;-72
2021/05/28 04:42:55;;;;;;;20.17;10.57;;;;;;;10.41;93.57;100928.91;20906188;28;20063;-70
2021/05/28 04:53:01;;;;;;;21.58;10.18;;;;;;;10.54;91.46;100940.50;20931701;28;20056;-70
2021/05/28 05:03:03;;;;;;;18.10;9.50;;;;;;;10.75;90.78;100949.16;20906951;28;20045;-70
2021/05/28 05:13:12;;;;;;;17.77;9.80;;;;;;;10.77;91.63;100960.38;20907607;28;20053;-70
2021/05/28 05:23:14;;;;;;;15.02;9.05;;;;;;;10.67;90.81;100961.72;20929540;28;20110;-70
2021/05/28 05:33:16;;;;;;;17.40;9.73;;;;;;;10.81;88.63;100958.50;20906159;28;20103;-71
2021/05/28 05:43:18;;;;;;;18.52;9.20;;;;;;;11.01;87.98;100969.75;20906715;28;20049;-71
2021/05/28 05:53:20;;;;;;;21.48;9.60;;;;;;;11.07;85.58;100974.66;20948188;28;20060;-72
2021/05/28 06:03:22;;;;;;;20.88;10.55;;;;;;;11.14;84.86;100978.72;20985508;28;20048;-72
2021/05/28 06:13:24;;;;;;;15.85;9.18;;;;;;;11.55;82.87;100983.72;20982546;28;20049;-73
2021/05/28 06:23:26;;;;;;;17.75;9.73;;;;;;;11.51;84.00;100979.56;20940122;28;20048;-73
2021/05/28 06:33:29;;;;;;;26.15;10.43;;;;;;;11.64;81.88;100999.00;20984064;28;20048;-73
2021/05/28 06:43:31;;;;;;;22.10;10.25;;;;;;;11.82;80.62;101007.78;20980366;28;20045;-73
2021/05/28 06:53:32;;;;;;;17.38;9.80;;;;;;;12.25;78.76;101017.81;20971637;28;20098;-73
2021/05/28 07:03:34;;;;;;;15.52;7.72;;;;;;;12.71;76.55;101025.91;20968435;28;20040;-73
2021/05/28 07:13:36;;;;;;;13.60;7.88;;;;;;;13.01;71.92;101040.03;20973684;28;20413;-73
2021/05/28 07:23:38;;;;;;;15.60;8.70;;;;;;;12.98;73.06;101032.34;20968578;28;20505;-74
2021/05/28 07:33:39;;;;;;;13.95;8.80;;;;;;;13.60;71.53;101030.66;20959014;28;20052;-74
2021/05/28 07:43:41;;;;;;;16.55;7.82;;;;;;;14.29;69.54;101023.09;20969758;28;20418;-73
2021/05/28 07:53:44;;;;;;;15.68;8.90;;;;;;;13.41;70.28;101025.56;20974107;28;20262;-73
2021/05/28 08:03:46;;;;;;;14.65;8.68;;;;;;;14.06;68.95;101027.09;20819559;28;20051;-73
2021/05/28 08:13:48;;;;;;;11.52;6.70;;;;;;;14.86;65.46;101009.97;20565667;28;20465;-73
2021/05/28 08:23:50;;;;;;;15.82;8.18;;;;;;;15.53;63.59;101018.91;20558183;28;20416;-72
2021/05/28 08:33:51;;;;;;;13.70;8.27;;;;;;;14.86;62.12;101008.19;20729651;28;20045;-72
2021/05/28 08:43:54;;;;;;;17.17;10.23;;;;;;;15.45;61.71;101015.88;20971175;28;20463;-72
2021/05/28 08:53:57;;;;;;;14.43;8.50;;;;;;;16.25;59.04;101016.66;20963323;28;20460;-73
2021/05/28 09:04:00;;;;;;;11.88;8.52;;;;;;;15.46;60.64;101007.88;20971696;28;20044;-72
2021/05/28 09:14:03;;;;;;;14.25;9.77;;;;;;;15.37;60.93;101019.88;20962673;28;20486;-72
2021/05/28 09:24:26;;;;;;;13.15;8.90;;;;;;;16.10;57.77;101025.59;20961833;28;20052;-72
2021/05/28 09:34:28;;;;;;;11.10;6.88;;;;;;;16.44;56.65;101020.69;20778619;28;20047;-72
2021/05/28 09:44:31;;;;;;;9.95;6.88;;;;;;;16.00;56.60;101008.69;20545114;28;20109;-72
2021/05/28 09:54:33;;;;;;;10.95;6.13;;;;;;;16.76;54.08;101014.03;20546791;28;20051;-72
2021/05/28 10:04:51;;;;;;;9.80;5.20;;;;;;;17.85;53.08;100992.84;20727156;28;20486;-73
2021/05/28 10:14:54;;;;;;;8.23;5.15;;;;;;;16.95;51.25;101008.31;20966199;28;20059;-71
2021/05/28 10:24:55;;;;;;;8.80;4.22;;;;;;;15.85;52.26;100988.59;20953169;28;20126;-69
2021/05/28 10:35:10;;;;;;;9.25;5.47;;;;;;;16.93;50.84;100986.41;20758838;28;20050;-71
2021/05/28 10:45:31;;;;;;;7.47;4.27;;;;;;;18.01;50.24;100989.88;20554400;28;20401;-71
2021/05/28 10:56:06;;;;;;;7.15;2.95;;;;;;;18.62;43.46;100985.19;20538679;28;20058;-72
2021/05/28 11:06:08;;;;;;;4.47;2.70;;;;;;;18.15;43.58;100964.97;20826318;28;20049;-71
2021/05/28 11:16:10;;;;;;;5.60;2.08;;;;;;;17.53;45.02;100962.59;20984220;28;20083;-72
2021/05/28 11:26:23;;;;;;;11.30;3.50;;;;;;;17.26;48.49;100954.06;20952141;28;20041;-71
2021/05/28 11:36:24;;;;;;;10.50;2.60;;;;;;;16.31;50.47;100953.78;20965751;28;20090;-71
2021/05/28 11:46:26;;;;;;;4.65;2.47;;;;;;;18.02;47.42;100929.81;20975534;28;20048;-72
2021/05/28 11:56:28;;;;;;;3.45;2.10;;;;;;;18.17;44.45;100924.16;20980607;28;20045;-70
2021/05/28 12:06:33;;;;;;;4.78;2.08;;;;;;;17.07;45.68;100928.91;20948114;28;20097;-72
2021/05/28 12:16:36;;;;;;;3.08;1.40;;;;;;;18.24;44.90;100911.25;20951323;28;20548;-72
2021/05/28 12:26:38;;;;;;;18.20;3.38;;;;;;;17.97;39.94;100910.78;20977348;28;20059;-72
2021/05/28 12:36:43;;;;;;;3.25;1.80;;;;;;;18.11;41.48;100899.94;20974619;28;20478;-72
2021/05/28 12:46:55;;;;;;;5.07;1.95;;;;;;;17.66;44.95;100907.81;20971997;28;20098;-71
2021/05/28 12:57:03;;;;;;;6.57;2.08;;;;;;;17.71;45.88;100904.81;20948289;28;20098;-72
2021/05/28 13:07:04;;;;;;;3.38;1.80;;;;;;;17.21;47.15;100890.03;20636513;28;20403;-72
2021/05/28 13:17:28;;;;;;;7.35;2.42;;;;;;;17.45;45.93;100875.81;20532332;28;20051;-71
2021/05/28 13:27:30;;;;;;;7.15;2.30;;;;;;;17.34;46.66;100882.88;20493504;28;20043;-71
2021/05/28 13:37:32;;;;;;;6.30;2.05;;;;;;;17.40;45.38;100869.19;20795713;28;20072;-71
2021/05/28 13:47:34;;;;;;;4.30;2.33;;;;;;;18.02;43.81;100861.78;20902433;28;20045;-71
2021/05/28 13:57:37;;;;;;;4.97;1.77;;;;;;;18.64;42.68;100856.81;20919720;28;20110;-71
2021/05/28 14:07:40;;;;;;;4.63;2.33;;;;;;;18.93;45.75;100835.03;20905461;28;20459;-71
2021/05/28 14:17:43;;;;;;;3.53;1.80;;;;;;;17.80;47.24;100857.28;20976914;28;20044;-72
2021/05/28 14:27:46;;;;;;;5.65;2.00;;;;;;;17.71;47.32;100843.91;20932657;28;20459;-71
2021/05/28 14:37:49;;;;;;;4.05;1.73;;;;;;;18.39;46.54;100842.00;20917885;28;20045;-71
2021/05/28 14:47:51;;;;;;;3.85;1.48;;;;;;;19.56;43.98;100837.66;20918976;28;20107;-71
2021/05/28 14:57:53;;;;;;;4.10;1.67;;;;;;;17.76;45.40;100836.47;20931856;28;20045;-71
2021/05/28 15:07:58;;;;;;;4.28;1.90;;;;;;;17.52;45.38;100828.56;20914258;28;20103;-71
2021/05/28 15:18:00;;;;;;;5.57;1.67;;;;;;;17.70;43.64;100834.28;20976273;28;20076;-71
2021/05/28 15:28:03;;;;;;;4.05;1.30;;;;;;;18.27;42.73;100826.25;20947889;28;20669;-70
2021/05/28 15:38:08;;;;;;;4.33;1.37;;;;;;;18.69;40.99;100812.19;20913090;28;20056;-71
2021/05/28 15:48:10;;;;;;;2.63;1.17;;;;;;;18.68;41.25;100799.94;20913913;28;20053;-71
2021/05/28 15:58:14;;;;;;;7.63;1.70;;;;;;;18.19;39.97;100808.28;20951938;28;20510;-71
2021/05/28 16:08:17;;;;;;;4.18;1.20;;;;;;;18.78;39.27;100794.72;20577442;28;20077;-71
2021/05/28 16:18:18;;;;;;;2.67;1.13;;;;;;;18.99;39.85;100781.50;20553945;28;20424;-71
2021/05/28 16:28:22;;;;;;;4.88;1.63;;;;;;;19.22;40.12;100786.53;20556083;28;20051;-71
2021/05/28 16:38:24;;;;;;;5.80;2.13;;;;;;;18.90;42.55;100776.91;20571202;28;20455;-71
2021/05/28 16:48:27;;;;;;;2.72;1.23;;;;;;;18.31;42.43;100764.91;20568458;28;20187;-71
2021/05/28 16:58:29;;;;;;;5.18;2.00;;;;;;;18.76;39.41;100760.34;20554659;28;20055;-71
2021/05/28 17:08:32;;;;;;;3.83;1.38;;;;;;;18.90;39.90;100761.00;20923923;28;20125;-69
2021/05/28 17:18:34;;;;;;;2.78;1.40;;;;;;;18.61;42.51;100761.59;20924482;28;20114;-71
2021/05/28 17:28:37;;;;;;;3.90;1.60;;;;;;;18.65;44.61;100760.38;20975481;28;20490;-71
2021/05/28 17:38:39;;;;;;;4.05;1.40;;;;;;;18.52;44.28;100762.34;20626691;28;20075;-71
2021/05/28 17:48:41;;;;;;;3.17;1.40;;;;;;;18.28;45.75;100774.94;20557239;28;20043;-71
2021/05/28 17:58:43;;;;;;;4.63;1.60;;;;;;;17.74;46.04;100769.53;20552831;28;20047;-71
2021/05/28 18:08:45;;;;;;;4.90;1.63;;;;;;;17.53;47.53;100772.00;20931735;28;20491;-71
2021/05/28 18:19:07;;;;;;;2.85;1.30;;;;;;;17.17;50.22;100774.84;20958638;28;20057;-71
2021/05/28 18:29:09;;;;;;;4.70;1.88;;;;;;;16.96;48.46;100777.28;20910995;28;20355;-71
2021/05/28 18:39:11;;;;;;;5.75;2.17;;;;;;;16.83;47.78;100774.69;20901752;28;20103;-71
2021/05/28 18:49:14;;;;;;;3.63;1.60;;;;;;;16.45;49.19;100776.66;20915299;28;20049;-71
2021/05/28 18:59:15;;;;;;;3.75;1.50;;;;;;;16.42;48.90;100779.50;20925881;28;20044;-70
2021/05/28 19:09:18;;;;;;;5.43;2.60;;;;;;;16.03;50.77;100786.69;20901914;28;20057;-74
2021/05/28 19:19:20;;;;;;;5.07;2.10;;;;;;;15.82;52.20;100804.88;20930186;28;20079;-71
2021/05/28 19:29:21;;;;;;;4.72;2.28;;;;;;;15.62;53.85;100810.69;20987757;28;20040;-72
2021/05/28 19:39:23;;;;;;;5.70;2.80;;;;;;;15.53;53.78;100821.88;20604274;28;20108;-71
2021/05/28 19:49:25;;;;;;;5.30;2.00;;;;;;;15.32;54.21;100829.41;20529157;28;20050;-71
2021/05/28 19:59:27;;;;;;;6.15;3.13;;;;;;;15.13;56.25;100836.84;20567343;28;20046;-71
2021/05/28 20:09:29;;;;;;;7.10;3.05;;;;;;;14.95;56.31;100831.00;20971088;28;20072;-72
2021/05/28 20:19:31;;;;;;;7.00;3.05;;;;;;;14.88;57.74;100842.88;20950217;28;20128;-73
2021/05/28 20:29:32;;;;;;;7.13;3.33;;;;;;;14.81;58.65;100846.00;20918756;28;20171;-72
2021/05/28 20:39:34;;;;;;;5.95;3.10;;;;;;;14.76;58.63;100856.84;20906635;28;20041;-72
2021/05/28 20:49:35;;;;;;;7.43;3.42;;;;;;;14.61;59.36;100843.81;20935518;28;20052;-71
2021/05/28 20:59:38;;;;;;;7.80;3.28;;;;;;;14.54;59.16;100832.81;20933786;28;20090;-70
2021/05/28 21:09:40;;;;;;;6.13;2.35;;;;;;;14.51;59.06;100840.91;20475728;28;20042;-70
2021/05/28 21:19:42;;;;;;;6.38;3.33;;;;;;;14.42;59.62;100852.88;20472334;28;20118;-70
2021/05/28 21:29:44;;;;;;;7.30;2.28;;;;;;;14.34;62.34;100852.47;20459891;28;20051;-71
2021/05/28 21:39:46;;;;;;;2.88;1.67;;;;;;;13.87;67.60;100846.66;20470014;28;20055;-71
2021/05/28 21:49:48;;;;;;;6.35;2.67;;;;;;;13.71;67.32;100852.84;20458040;28;20052;-71
2021/05/28 21:59:50;;;;;;;4.30;2.20;;;;;;;13.73;68.33;100855.38;20453013;28;20056;-73
2021/05/28 22:09:52;;;;;;;5.07;2.30;;;;;;;13.32;70.53;100865.72;20471018;28;20043;-72
2021/05/28 22:19:54;;;;;;;4.65;2.15;;;;;;;13.26;71.61;100866.06;20474931;28;20043;-73
2021/05/28 22:40:06;;;;;;;4.50;2.47;;;;;;;12.94;73.68;100864.41;20404176;28;20471;-73
2021/05/28 22:50:08;;;;;;;5.20;2.77;;;;;;;13.04;70.46;100876.09;20422740;28;20060;-72
2021/05/28 23:00:11;;;;;;;5.80;2.50;;;;;;;13.14;69.81;100888.66;20422698;28;20059;-73
2021/05/28 23:20:18;;;;;;;4.87;2.73;;;;;;;13.15;69.02;100876.38;20424577;28;20118;-72
2021/05/28 23:30:21;;;;;;;8.18;2.95;;;;;;;13.09;69.86;100874.06;20500146;28;20047;-73
2021/05/28 23:40:24;;;;;;;6.22;2.40;;;;;;;12.91;71.57;100877.72;20493458;28;20803;-73
2021/05/28 23:50:25;;;;;;;6.63;2.55;;;;;;;12.76;72.80;100861.88;20482543;28;20186;-73
